createdAt,value
2018-09-27T00:01:44.607Z,98682.33
2018-09-27T00:04:14.031Z,98676.95
2018-09-27T00:06:43.378Z,98674.38
2018-09-27T00:09:12.718Z,98678.67
2018-09-27T00:11:42.048Z,98677.70
2018-09-27T00:14:11.406Z,98682.34
2018-09-27T00:16:46.887Z,98683.34
2018-09-27T00:19:16.219Z,98681.91
2018-09-27T00:21:45.654Z,98683.83
2018-09-27T00:24:15.000Z,98673.45
2018-09-27T00:26:44.315Z,98677.60
2018-09-27T00:29:13.678Z,98665.06
2018-09-27T00:31:43.016Z,98665.52
2018-09-27T00:34:12.349Z,98661.55
2018-09-27T00:36:41.663Z,98655.00
2018-09-27T00:39:12.753Z,98648.86
2018-09-27T00:41:42.170Z,98653.38
2018-09-27T00:44:11.955Z,98663.02
2018-09-27T00:46:41.246Z,98665.61
2018-09-27T00:49:10.624Z,98665.77
2018-09-27T00:51:40.038Z,98665.06
2018-09-27T00:54:09.376Z,98664.51
2018-09-27T00:56:38.666Z,98655.67
2018-09-27T00:59:08.134Z,98661.58
2018-09-27T01:01:37.450Z,98660.59
2018-09-27T01:04:07.139Z,98656.59
2018-09-27T01:06:36.449Z,98649.92
2018-09-27T01:09:08.439Z,98642.30
2018-09-27T01:11:37.750Z,98644.91
2018-09-27T01:14:07.048Z,98643.70
2018-09-27T01:16:36.350Z,98642.08
2018-09-27T01:19:05.717Z,98642.70
2018-09-27T01:21:35.047Z,98647.64
2018-09-27T01:24:04.350Z,98651.87
2018-09-27T01:26:33.634Z,98646.70
2018-09-27T01:29:02.921Z,98651.72
2018-09-27T01:31:32.408Z,98649.09
2018-09-27T01:34:01.713Z,98641.97
2018-09-27T01:36:30.983Z,98643.08
2018-09-27T01:39:00.337Z,98643.08
2018-09-27T01:41:29.631Z,98640.58
2018-09-27T01:43:59.066Z,98646.75
2018-09-27T01:46:28.688Z,98636.67
2018-09-27T01:48:58.012Z,98635.84
2018-09-27T01:51:27.300Z,98636.16
2018-09-27T01:53:56.602Z,98636.63
2018-09-27T01:56:26.138Z,98637.06
2018-09-27T01:58:55.461Z,98636.30
2018-09-27T02:01:24.767Z,98633.70
2018-09-27T02:03:54.067Z,98635.17
2018-09-27T02:06:23.406Z,98637.00
2018-09-27T02:08:53.259Z,98636.06
2018-09-27T02:11:22.550Z,98634.88
2018-09-27T02:13:51.854Z,98632.14
2018-09-27T02:16:21.192Z,98626.75
2018-09-27T02:18:50.508Z,98623.96
2018-09-27T02:21:19.919Z,98617.69
2018-09-27T02:23:49.214Z,98608.73
2018-09-27T02:26:18.525Z,98602.98
2018-09-27T02:28:47.826Z,98608.11
2018-09-27T02:31:17.152Z,98603.94
2018-09-27T02:33:46.474Z,98605.50
2018-09-27T02:36:15.773Z,98601.13
2018-09-27T02:38:45.107Z,98596.02
2018-09-27T02:41:14.440Z,98595.55
2018-09-27T02:43:43.763Z,98599.39
2018-09-27T02:46:13.113Z,98603.89
2018-09-27T02:48:42.448Z,98601.63
2018-09-27T02:51:11.801Z,98590.00
2018-09-27T02:53:41.196Z,98593.63
2018-09-27T02:56:10.529Z,98590.14
2018-09-27T02:58:39.837Z,98581.22
2018-09-27T03:01:09.235Z,98591.67
2018-09-27T03:03:38.821Z,98590.23
2018-09-27T03:06:08.404Z,98584.56
2018-09-27T03:08:38.107Z,98591.75
2018-09-27T03:11:07.521Z,98590.99
2018-09-27T03:13:36.939Z,98599.03
2018-09-27T03:16:06.333Z,98601.35
2018-09-27T03:18:35.761Z,98601.72
2018-09-27T03:21:05.225Z,98600.30
2018-09-27T03:23:34.455Z,98598.69
2018-09-27T03:26:03.802Z,98601.68
2018-09-27T03:28:33.143Z,98602.53
2018-09-27T03:31:02.576Z,98597.34
2018-09-27T03:33:31.987Z,98591.50
2018-09-27T03:36:01.364Z,98592.23
2018-09-27T03:38:30.722Z,98586.86
2018-09-27T03:41:00.075Z,98585.52
2018-09-27T03:43:29.410Z,98583.92
2018-09-27T03:45:58.745Z,98594.09
2018-09-27T03:48:28.153Z,98593.55
2018-09-27T03:50:57.521Z,98595.28
2018-09-27T03:53:26.921Z,98597.84
2018-09-27T03:55:56.281Z,98594.64
2018-09-27T03:58:25.583Z,98587.30
2018-09-27T04:00:54.996Z,98592.88
2018-09-27T04:03:24.377Z,98587.14
2018-09-27T04:05:53.707Z,98594.39
2018-09-27T04:08:23.042Z,98590.51
2018-09-27T04:10:52.363Z,98596.55
2018-09-27T04:13:21.649Z,98587.90
2018-09-27T04:15:51.638Z,98584.07
2018-09-27T04:18:20.955Z,98584.53
2018-09-27T04:20:52.972Z,98578.59
2018-09-27T04:23:23.539Z,98579.58
2018-09-27T04:25:53.136Z,98574.95
2018-09-27T04:28:22.956Z,98577.63
2018-09-27T04:30:54.277Z,98564.70
2018-09-27T04:33:23.579Z,98568.58
2018-09-27T04:35:52.898Z,98560.93
2018-09-27T04:38:22.220Z,98567.96
2018-09-27T04:40:51.551Z,98573.98
2018-09-27T04:43:20.888Z,98576.77
2018-09-27T04:45:50.282Z,98574.04
2018-09-27T04:48:19.693Z,98581.06
2018-09-27T04:50:49.070Z,98583.14
2018-09-27T04:53:18.408Z,98580.59
2018-09-27T04:55:47.821Z,98578.34
2018-09-27T04:58:17.262Z,98574.09
2018-09-27T05:00:46.857Z,98578.59
2018-09-27T05:03:16.342Z,98572.01
2018-09-27T05:05:45.806Z,98573.53
2018-09-27T05:08:15.237Z,98578.50
2018-09-27T05:10:44.713Z,98567.00
2018-09-27T05:13:14.175Z,98567.89
2018-09-27T05:15:43.752Z,98568.62
2018-09-27T05:18:13.288Z,98559.35
2018-09-27T05:20:42.700Z,98563.49
2018-09-27T05:23:12.149Z,98563.89
2018-09-27T05:25:41.576Z,98558.21
2018-09-27T05:28:34.281Z,98560.92
2018-09-27T05:31:04.590Z,98548.78
2018-09-27T05:33:34.081Z,98550.23
2018-09-27T05:36:03.811Z,98560.11
2018-09-27T05:38:33.265Z,98554.84
2018-09-27T05:41:02.639Z,98552.55
2018-09-27T05:43:32.085Z,98558.32
2018-09-27T05:46:01.474Z,98564.29
2018-09-27T05:48:30.883Z,98569.90
2018-09-27T05:51:00.246Z,98570.13
2018-09-27T05:53:29.610Z,98565.30
2018-09-27T05:55:59.033Z,98561.78
2018-09-27T05:58:28.392Z,98567.59
2018-09-27T06:00:57.857Z,98574.66
2018-09-27T06:03:27.381Z,98568.74
2018-09-27T06:05:56.894Z,98566.09
2018-09-27T06:08:27.017Z,98571.02
2018-09-27T06:10:57.269Z,98564.05
2018-09-27T06:13:26.766Z,98575.17
2018-09-27T06:15:56.148Z,98563.89
2018-09-27T06:18:25.525Z,98564.80
2018-09-27T06:20:54.896Z,98567.00
2018-09-27T06:23:24.282Z,98568.37
2018-09-27T06:25:53.669Z,98575.79
2018-09-27T06:28:23.054Z,98581.80
2018-09-27T06:30:52.444Z,98574.88
2018-09-27T06:33:21.811Z,98568.48
2018-09-27T06:35:51.181Z,98571.21
2018-09-27T06:38:21.002Z,98567.55
2018-09-27T06:40:50.406Z,98568.85
2018-09-27T06:43:19.817Z,98568.70
2018-09-27T06:45:49.217Z,98569.86
2018-09-27T06:48:18.644Z,98568.16
2018-09-27T06:50:48.019Z,98573.95
2018-09-27T06:53:17.429Z,98577.33
2018-09-27T06:55:46.929Z,98571.52
2018-09-27T06:58:16.290Z,98557.45
2018-09-27T07:00:45.764Z,98567.17
2018-09-27T07:03:15.136Z,98561.09
2018-09-27T07:05:44.635Z,98564.60
2018-09-27T07:08:14.052Z,98562.63
2018-09-27T07:10:43.814Z,98558.41
2018-09-27T07:13:13.219Z,98553.64
2018-09-27T07:15:42.714Z,98560.02
2018-09-27T07:18:12.276Z,98559.25
2018-09-27T07:20:41.695Z,98564.27
2018-09-27T07:23:11.079Z,98558.98
2018-09-27T07:25:40.466Z,98563.12
2018-09-27T07:28:09.892Z,98561.76
2018-09-27T07:30:39.292Z,98551.36
2018-09-27T07:33:08.706Z,98556.58
2018-09-27T07:35:38.105Z,98546.45
2018-09-27T07:38:07.578Z,98531.84
2018-09-27T07:40:37.012Z,98532.25
2018-09-27T07:43:06.444Z,98542.27
2018-09-27T07:45:35.920Z,98543.89
2018-09-27T07:48:05.332Z,98537.25
2018-09-27T07:50:34.783Z,98536.05
2018-09-27T07:53:04.183Z,98534.97
2018-09-27T07:55:33.577Z,98531.03
2018-09-27T07:58:02.965Z,98530.92
2018-09-27T08:00:32.363Z,98530.70
2018-09-27T08:03:01.805Z,98534.06
2018-09-27T08:05:31.190Z,98528.00
2018-09-27T08:08:00.583Z,98535.74
2018-09-27T08:10:29.988Z,98524.02
2018-09-27T08:12:59.404Z,98527.09
2018-09-27T08:15:28.817Z,98530.61
2018-09-27T08:17:58.222Z,98524.86
2018-09-27T08:20:27.665Z,98526.23
2018-09-27T08:22:57.051Z,98534.53
2018-09-27T08:25:26.457Z,98527.52
2018-09-27T08:27:55.855Z,98524.02
2018-09-27T08:30:25.319Z,98528.83
2018-09-27T08:32:54.768Z,98531.48
2018-09-27T08:35:24.170Z,98529.29
2018-09-27T08:37:53.568Z,98527.53
2018-09-27T08:40:22.946Z,98516.98
2018-09-27T08:42:52.314Z,98518.87
2018-09-27T08:45:21.975Z,98520.83
2018-09-27T08:47:51.113Z,98519.69
2018-09-27T08:50:20.520Z,98518.34
2018-09-27T08:52:49.891Z,98519.58
2018-09-27T08:55:19.301Z,98512.43
2018-09-27T08:57:48.697Z,98499.70
2018-09-27T09:00:18.091Z,98499.60
2018-09-27T09:02:47.490Z,98497.52
2018-09-27T09:05:16.902Z,98498.81
2018-09-27T09:07:46.307Z,98493.17
2018-09-27T09:10:15.730Z,98501.34
2018-09-27T09:12:45.109Z,98500.90
2018-09-27T09:15:14.501Z,98488.61
2018-09-27T09:17:43.882Z,98479.02
2018-09-27T09:20:13.509Z,98481.81
2018-09-27T09:22:42.893Z,98476.73
2018-09-27T09:25:12.286Z,98473.41
2018-09-27T09:27:41.741Z,98479.45
2018-09-27T09:30:11.140Z,98475.14
2018-09-27T09:32:40.537Z,98469.86
2018-09-27T09:35:09.932Z,98472.09
2018-09-27T09:37:39.325Z,98465.59
2018-09-27T09:40:08.745Z,98459.25
2018-09-27T09:42:38.140Z,98456.70
2018-09-27T09:45:07.531Z,98460.25
2018-09-27T09:47:36.944Z,98462.80
2018-09-27T09:50:06.385Z,98453.77
2018-09-27T09:52:35.773Z,98447.32
2018-09-27T09:55:05.585Z,98442.77
2018-09-27T09:57:34.994Z,98445.81
2018-09-27T10:00:04.443Z,98447.50
2018-09-27T10:02:33.964Z,98446.83
2018-09-27T10:05:03.264Z,98438.17
2018-09-27T10:07:32.657Z,98430.61
2018-09-27T10:10:02.104Z,98436.72
2018-09-27T10:12:31.619Z,98435.19
2018-09-27T10:15:01.049Z,98420.23
2018-09-27T10:17:30.457Z,98418.94
2018-09-27T10:19:59.894Z,98415.20
2018-09-27T10:22:29.307Z,98413.08
2018-09-27T10:24:58.695Z,98401.41
2018-09-27T10:27:28.138Z,98408.55
2018-09-27T10:29:57.531Z,98402.44
2018-09-27T10:32:26.927Z,98404.84
2018-09-27T10:34:56.318Z,98398.83
2018-09-27T10:37:25.726Z,98399.16
2018-09-27T10:39:55.096Z,98394.47
2018-09-27T10:42:24.505Z,98390.34
2018-09-27T10:44:53.882Z,98396.38
2018-09-27T10:47:23.227Z,98382.88
2018-09-27T10:49:52.645Z,98384.47
2018-09-27T10:52:21.995Z,98372.66
2018-09-27T10:54:51.344Z,98365.03
2018-09-27T10:57:21.239Z,98367.00
2018-09-27T10:59:50.702Z,98366.68
2018-09-27T11:02:20.055Z,98371.02
2018-09-27T11:04:49.393Z,98370.73
2018-09-27T11:07:18.756Z,98360.17
2018-09-27T11:09:48.175Z,98359.81
2018-09-27T11:12:17.570Z,98355.23
2018-09-27T11:14:46.916Z,98347.13
2018-09-27T11:17:16.277Z,98344.17
2018-09-27T11:19:45.631Z,98343.81
2018-09-27T11:22:14.973Z,98336.36
2018-09-27T11:24:44.329Z,98324.08
2018-09-27T11:27:13.690Z,98317.64
2018-09-27T11:29:48.185Z,98323.50
2018-09-27T11:32:22.826Z,98320.95
2018-09-27T11:34:52.170Z,98316.73
2018-09-27T11:37:21.535Z,98318.17
2018-09-27T11:39:50.911Z,98310.08
2018-09-27T11:42:20.489Z,98305.48
2018-09-27T11:44:49.829Z,98310.98
2018-09-27T11:47:19.335Z,98298.88
2018-09-27T11:49:48.738Z,98290.59
2018-09-27T11:52:18.128Z,98286.31
2018-09-27T11:54:47.471Z,98274.00
2018-09-27T11:57:16.842Z,98272.63
2018-09-27T11:59:46.196Z,98278.13
2018-09-27T12:02:15.619Z,98280.70
2018-09-27T12:04:44.979Z,98275.99
2018-09-27T12:07:14.342Z,98265.96
2018-09-27T12:09:43.691Z,98261.71
2018-09-27T12:12:13.102Z,98264.24
2018-09-27T12:14:42.573Z,98258.46
2018-09-27T12:17:11.926Z,98249.05
2018-09-27T12:19:41.349Z,98239.47
2018-09-27T12:22:10.606Z,98243.08
2018-09-27T12:24:40.058Z,98236.97
2018-09-27T12:27:09.452Z,98231.02
2018-09-27T12:29:38.806Z,98231.46
2018-09-27T12:32:08.144Z,98217.10
2018-09-27T12:34:37.477Z,98219.88
2018-09-27T12:37:06.891Z,98212.62
2018-09-27T12:39:36.311Z,98209.67
2018-09-27T12:42:05.888Z,98208.36
2018-09-27T12:44:35.006Z,98199.61
2018-09-27T12:47:04.349Z,98204.53
2018-09-27T12:49:33.789Z,98193.92
2018-09-27T12:52:03.356Z,98186.11
2018-09-27T12:54:32.517Z,98172.83
2018-09-27T12:57:01.895Z,98175.73
2018-09-27T12:59:31.199Z,98169.27
2018-09-27T13:02:00.748Z,98166.07
2018-09-27T13:04:30.096Z,98162.88
2018-09-27T13:06:59.453Z,98164.31
2018-09-27T13:09:28.970Z,98154.55
2018-09-27T13:11:58.192Z,98155.41
2018-09-27T13:14:27.494Z,98153.86
2018-09-27T13:16:56.853Z,98139.52
2018-09-27T13:19:26.271Z,98134.27
2018-09-27T13:21:55.558Z,98134.52
2018-09-27T13:24:24.969Z,98132.30
2018-09-27T13:26:54.280Z,98129.52
2018-09-27T13:29:23.616Z,98121.50
2018-09-27T13:31:53.026Z,98117.23
2018-09-27T13:34:22.327Z,98117.97
2018-09-27T13:36:51.680Z,98108.16
2018-09-27T13:39:20.992Z,98101.20
2018-09-27T13:41:50.320Z,98092.36
2018-09-27T13:44:19.755Z,98096.44
2018-09-27T13:46:49.649Z,98087.48
2018-09-27T13:49:18.979Z,98089.74
2018-09-27T13:51:48.290Z,98074.78
2018-09-27T13:54:17.644Z,98072.39
2018-09-27T13:56:47.040Z,98063.52
2018-09-27T13:59:16.309Z,98065.31
2018-09-27T14:01:45.627Z,98058.50
2018-09-27T14:04:14.951Z,98059.03
2018-09-27T14:06:44.259Z,98051.41
2018-09-27T14:09:13.578Z,98050.15
2018-09-27T14:11:42.909Z,98037.42
2018-09-27T14:14:12.432Z,98034.42
2018-09-27T14:16:41.823Z,98034.89
2018-09-27T14:19:11.131Z,98033.06
2018-09-27T14:21:40.490Z,98024.84
2018-09-27T14:24:09.815Z,98023.25
2018-09-27T14:26:39.185Z,98019.69
2018-09-27T14:29:08.499Z,98019.27
2018-09-27T14:31:37.825Z,98011.36
2018-09-27T14:34:07.507Z,98010.45
2018-09-27T14:36:36.915Z,98014.33
2018-09-27T14:39:09.117Z,98007.50
2018-09-27T14:41:38.504Z,98003.79
2018-09-27T14:44:08.057Z,98004.75
2018-09-27T14:46:37.427Z,97999.19
2018-09-27T14:49:06.815Z,98002.44
2018-09-27T14:51:36.166Z,97999.45
2018-09-27T14:54:05.515Z,97994.14
2018-09-27T14:56:34.883Z,97989.69
2018-09-27T14:59:04.215Z,97984.98
2018-09-27T15:01:33.606Z,97981.63
2018-09-27T15:04:02.951Z,97978.31
2018-09-27T15:06:32.351Z,97976.42
2018-09-27T15:09:01.651Z,97982.88
2018-09-27T15:11:31.073Z,97986.03
2018-09-27T15:14:00.433Z,97977.77
2018-09-27T15:16:29.880Z,97974.80
2018-09-27T15:18:59.143Z,97973.43
2018-09-27T15:21:28.528Z,97967.27
2018-09-27T15:23:57.974Z,97962.20
2018-09-27T15:26:27.354Z,97960.36
2018-09-27T15:28:56.686Z,97957.06
2018-09-27T15:31:26.140Z,97957.59
2018-09-27T15:33:55.524Z,97954.78
2018-09-27T15:36:24.914Z,97957.63
2018-09-27T15:38:54.210Z,97950.25
2018-09-27T15:41:23.543Z,97946.98
2018-09-27T15:43:52.843Z,97946.56
2018-09-27T15:46:22.275Z,97946.80
2018-09-27T15:48:51.589Z,97944.09
2018-09-27T15:51:20.985Z,97942.27
2018-09-27T15:53:50.335Z,97936.60
2018-09-27T15:56:19.720Z,97935.30
2018-09-27T15:58:49.040Z,97935.49
2018-09-27T16:01:18.359Z,97932.33
2018-09-27T16:03:47.691Z,97938.98
2018-09-27T16:06:17.050Z,97941.31
2018-09-27T16:08:46.532Z,97933.94
2018-09-27T16:11:15.851Z,97933.63
2018-09-27T16:13:45.209Z,97927.48
2018-09-27T16:16:14.496Z,97932.25
2018-09-27T16:18:43.803Z,97926.66
2018-09-27T16:21:13.120Z,97919.42
2018-09-27T16:23:42.503Z,97911.88
2018-09-27T16:26:11.775Z,97911.15
2018-09-27T16:28:41.150Z,97904.63
2018-09-27T16:31:10.480Z,97904.67
2018-09-27T16:33:39.790Z,97902.25
2018-09-27T16:36:09.121Z,97898.86
2018-09-27T16:38:38.717Z,97898.92
2018-09-27T16:41:08.081Z,97893.78
2018-09-27T16:43:37.429Z,97894.22
2018-09-27T16:46:06.828Z,97891.34
2018-09-27T16:48:36.219Z,97892.58
2018-09-27T16:51:05.626Z,97889.27
2018-09-27T16:53:35.114Z,97883.83
2018-09-27T16:56:04.452Z,97884.41
2018-09-27T16:58:33.801Z,97884.53
2018-09-27T17:01:03.172Z,97884.16
2018-09-27T17:03:32.510Z,97880.72
2018-09-27T17:06:01.851Z,97884.64
2018-09-27T17:08:31.272Z,97885.08
2018-09-27T17:11:00.655Z,97874.27
2018-09-27T17:13:30.067Z,97874.26
2018-09-27T17:15:59.409Z,97877.73
2018-09-27T17:18:28.762Z,97871.67
2018-09-27T17:20:58.118Z,97871.66
2018-09-27T17:23:27.524Z,97871.66
2018-09-27T17:25:56.835Z,97869.08
2018-09-27T17:28:26.254Z,97867.77
2018-09-27T17:30:55.608Z,97861.26
2018-09-27T17:33:24.958Z,97861.70
2018-09-27T17:35:54.301Z,97858.66
2018-09-27T17:38:23.737Z,97859.50
2018-09-27T17:40:53.120Z,97868.89
2018-09-27T17:43:22.597Z,97864.12
2018-09-27T17:45:52.038Z,97861.00
2018-09-27T17:48:21.513Z,97864.88
2018-09-27T17:50:50.883Z,97866.13
2018-09-27T17:53:20.485Z,97860.06
2018-09-27T17:55:49.735Z,97863.96
2018-09-27T17:58:19.224Z,97863.97
2018-09-27T18:00:48.702Z,97860.89
2018-09-27T18:03:18.088Z,97861.72
2018-09-27T18:05:47.514Z,97863.84
2018-09-27T18:08:16.952Z,97863.70
2018-09-27T18:10:46.604Z,97862.38
2018-09-27T18:13:17.907Z,97858.94
2018-09-27T18:15:47.701Z,97859.39
2018-09-27T18:18:17.391Z,97858.15
2018-09-27T18:20:47.503Z,97859.41
2018-09-27T18:23:17.956Z,97861.62
2018-09-27T18:25:47.777Z,97862.97
2018-09-27T18:28:17.735Z,97863.78
2018-09-27T18:30:49.287Z,97858.91
2018-09-27T18:33:18.862Z,97858.25
2018-09-27T18:35:48.521Z,97852.55
2018-09-27T18:38:18.095Z,97859.48
2018-09-27T18:40:47.470Z,97854.67
2018-09-27T18:43:17.687Z,97858.56
2018-09-27T18:45:47.155Z,97861.27
2018-09-27T18:48:16.589Z,97854.33
2018-09-27T18:50:46.115Z,97863.81
2018-09-27T18:53:16.567Z,97860.73
2018-09-27T18:55:46.604Z,97861.64
2018-09-27T18:58:16.025Z,97852.13
2018-09-27T19:00:45.468Z,97853.00
2018-09-27T19:03:14.907Z,97852.50
2018-09-27T19:05:44.587Z,97858.98
2018-09-27T19:08:14.116Z,97842.48
2018-09-27T19:10:43.546Z,97848.45
2018-09-27T19:13:12.909Z,97843.70
2018-09-27T19:15:42.358Z,97839.89
2018-09-27T19:18:11.816Z,97838.78
2018-09-27T19:20:41.305Z,97841.92
2018-09-27T19:23:10.800Z,97841.89
2018-09-27T19:25:40.317Z,97843.19
2018-09-27T19:28:09.773Z,97841.12
2018-09-27T19:30:40.399Z,97840.56
2018-09-27T19:33:09.904Z,97841.34
2018-09-27T19:35:39.633Z,97840.00
2018-09-27T19:38:11.416Z,97836.05
2018-09-27T19:40:40.916Z,97832.12
2018-09-27T19:43:10.401Z,97833.80
2018-09-27T19:45:46.617Z,97831.05
2018-09-27T19:48:16.361Z,97832.16
2018-09-27T19:50:45.935Z,97836.03
2018-09-27T19:53:15.363Z,97830.77
2018-09-27T19:55:44.779Z,97838.58
2018-09-27T19:58:15.564Z,97828.13
2018-09-27T20:00:45.121Z,97825.08
2018-09-27T20:03:14.641Z,97826.84
2018-09-27T20:05:44.063Z,97826.79
2018-09-27T20:08:13.560Z,97822.45
2018-09-27T20:10:43.041Z,97822.72
2018-09-27T20:13:12.663Z,97822.04
2018-09-27T20:15:42.250Z,97826.23
2018-09-27T20:18:11.833Z,97823.06
2018-09-27T20:20:41.289Z,97822.11
2018-09-27T20:23:12.399Z,97815.53
2018-09-27T20:25:42.175Z,97814.67
2018-09-27T20:28:12.027Z,97819.59
2018-09-27T20:30:41.536Z,97811.02
2018-09-27T20:33:11.168Z,97818.42
2018-09-27T20:35:40.621Z,97814.19
2018-09-27T20:38:10.072Z,97813.97
2018-09-27T20:40:39.640Z,97806.31
2018-09-27T20:43:09.261Z,97806.04
2018-09-27T20:45:39.676Z,97806.69
2018-09-27T20:48:09.239Z,97806.19
2018-09-27T20:50:38.807Z,97815.98
2018-09-27T20:53:08.284Z,97804.70
2018-09-27T20:55:41.217Z,97799.52
2018-09-27T20:58:10.821Z,97800.41
2018-09-27T21:00:40.659Z,97796.94
2018-09-27T21:03:10.424Z,97796.17
2018-09-27T21:05:39.923Z,97799.20
2018-09-27T21:08:12.295Z,97795.91
2018-09-27T21:10:41.825Z,97796.32
2018-09-27T21:13:11.241Z,97789.93
2018-09-27T21:15:40.762Z,97792.97
2018-09-27T21:18:10.222Z,97785.17
2018-09-27T21:20:39.703Z,97786.98
2018-09-27T21:23:09.454Z,97789.51
2018-09-27T21:25:38.882Z,97789.10
2018-09-27T21:28:09.175Z,97784.87
2018-09-27T21:30:38.684Z,97779.80
2018-09-27T21:33:08.194Z,97786.67
2018-09-27T21:35:37.703Z,97784.98
2018-09-27T21:38:07.177Z,97779.41
2018-09-27T21:40:41.797Z,97785.77
2018-09-27T21:43:11.311Z,97780.83
2018-09-27T21:45:40.936Z,97784.52
2018-09-27T21:48:10.371Z,97779.09
2018-09-27T21:50:39.801Z,97773.92
2018-09-27T21:53:10.461Z,97773.92
2018-09-27T21:55:39.926Z,97770.88
2018-09-27T21:58:09.472Z,97770.61
2018-09-27T22:00:39.065Z,97768.11
2018-09-27T22:03:08.529Z,97770.61
2018-09-27T22:05:38.024Z,97766.59
2018-09-27T22:08:07.572Z,97769.31
2018-09-27T22:10:37.131Z,97765.27
2018-09-27T22:13:06.611Z,97767.05
2018-09-27T22:15:36.064Z,97763.02
2018-09-27T22:18:06.724Z,97767.22
2018-09-27T22:20:37.010Z,97760.20
2018-09-27T22:23:06.845Z,97762.25
2018-09-27T22:25:37.045Z,97753.77
2018-09-27T22:28:06.496Z,97753.58
2018-09-27T22:30:35.961Z,97755.07
2018-09-27T22:33:05.383Z,97756.41
2018-09-27T22:35:34.832Z,97753.34
2018-09-27T22:38:04.236Z,97752.06
2018-09-27T22:40:33.708Z,97755.44
2018-09-27T22:43:03.148Z,97754.80
2018-09-27T22:45:32.662Z,97754.38
2018-09-27T22:48:02.226Z,97752.30
2018-09-27T22:50:31.688Z,97748.09
2018-09-27T22:53:01.116Z,97744.80
2018-09-27T22:55:30.608Z,97750.44
2018-09-27T22:57:59.970Z,97747.13
2018-09-27T23:00:29.432Z,97738.59
2018-09-27T23:03:00.713Z,97746.17
2018-09-27T23:05:30.149Z,97740.00
2018-09-27T23:07:59.534Z,97740.00
2018-09-27T23:10:28.942Z,97737.38
2018-09-27T23:12:58.480Z,97735.86
2018-09-27T23:15:27.830Z,97728.35
2018-09-27T23:17:57.243Z,97732.39
2018-09-27T23:20:27.620Z,97729.52
2018-09-27T23:22:57.019Z,97722.77
2018-09-27T23:25:26.411Z,97724.42
2018-09-27T23:27:55.848Z,97726.50
2018-09-27T23:30:25.378Z,97724.30
2018-09-27T23:32:54.729Z,97726.25
2018-09-27T23:35:24.084Z,97719.42
2018-09-27T23:37:53.456Z,97715.92
2018-09-27T23:40:22.873Z,97717.62
2018-09-27T23:42:52.250Z,97719.91
2018-09-27T23:45:21.652Z,97717.66
2018-09-27T23:47:51.062Z,97718.55
2018-09-27T23:50:20.523Z,97704.09
2018-09-27T23:52:50.129Z,97708.41
2018-09-27T23:55:19.468Z,97703.60
2018-09-27T23:57:48.892Z,97711.15
